Terminal Aerodrome Forecast
Issued by NWS

Home | Current Version | Previous Version | Text Only | Print | Product List | Glossary On
Versions: 1 2 3 4 5 6 7 8 9 10 11 12 13 14 15 16 17 18 19 20
000
FTUS43 KJKL 291400 AAC
TAFSME
TAF AMD
KSME 291403Z 2914/3012 00000KT 2SM BR OVC001
     FM291430 VRB04KT 5SM BR SCT005
     FM291500 VRB04KT P6SM FEW005
     FM291600 26004KT P6SM VCSH SCT035
     FM300200 00000KT P6SM SKC
     FM300700 00000KT 2SM BR SCT002
     FM300900 00000KT 1/2SM FG VV002=

USA.gov is the U.S. government's official web portal to all federal, state and local government web resources and services.